sensor_id;sensor_type;location;lat;lon;timestamp;P1;durP1;ratioP1;P2;durP2;ratioP2
22687;SDS011;11511;51.514;7.080;2023-07-13T09:25:48;8.68;;;3.22;;
22687;SDS011;11511;51.514;7.080;2023-07-13T09:28:26;8.30;;;2.50;;
22687;SDS011;11511;51.514;7.080;2023-07-13T09:31:03;7.05;;;3.20;;
22687;SDS011;11511;51.514;7.080;2023-07-13T09:33:31;8.20;;;2.70;;
22687;SDS011;11511;51.514;7.080;2023-07-13T09:35:57;7.22;;;2.70;;
22687;SDS011;11511;51.514;7.080;2023-07-13T09:38:24;9.10;;;2.90;;
22687;SDS011;11511;51.514;7.080;2023-07-13T09:43:24;6.95;;;2.40;;
22687;SDS011;11511;51.514;7.080;2023-07-13T09:45:50;4.70;;;2.30;;
22687;SDS011;11511;51.514;7.080;2023-07-13T09:48:16;9.90;;;2.40;;
22687;SDS011;11511;51.514;7.080;2023-07-13T09:50:42;6.07;;;2.30;;
22687;SDS011;11511;51.514;7.080;2023-07-13T09:53:15;6.85;;;2.42;;
22687;SDS011;11511;51.514;7.080;2023-07-13T09:55:44;8.80;;;2.60;;
22687;SDS011;11511;51.514;7.080;2023-07-13T09:58:14;11.45;;;2.47;;
22687;SDS011;11511;51.514;7.080;2023-07-13T10:00:40;8.20;;;2.55;;
22687;SDS011;11511;51.514;7.080;2023-07-13T10:03:14;6.68;;;2.20;;
22687;SDS011;11511;51.514;7.080;2023-07-13T10:05:43;7.90;;;2.70;;
22687;SDS011;11511;51.514;7.080;2023-07-13T10:11:08;8.02;;;2.30;;
22687;SDS011;11511;51.514;7.080;2023-07-13T10:13:36;6.05;;;2.33;;
22687;SDS011;11511;51.514;7.080;2023-07-13T10:16:06;7.53;;;2.25;;
22687;SDS011;11511;51.514;7.080;2023-07-13T10:18:38;7.03;;;2.17;;
22687;SDS011;11511;51.514;7.080;2023-07-13T10:21:15;6.57;;;2.50;;
22687;SDS011;11511;51.514;7.080;2023-07-13T10:26:12;7.00;;;2.72;;
22687;SDS011;11511;51.514;7.080;2023-07-13T10:28:43;8.20;;;2.70;;
22687;SDS011;11511;51.514;7.080;2023-07-13T10:31:13;9.68;;;2.67;;
22687;SDS011;11511;51.514;7.080;2023-07-13T10:33:40;8.38;;;2.45;;
22687;SDS011;11511;51.514;7.080;2023-07-13T10:39:05;5.70;;;2.33;;
22687;SDS011;11511;51.514;7.080;2023-07-13T10:41:37;8.82;;;2.03;;
22687;SDS011;11511;51.514;7.080;2023-07-13T10:44:07;9.70;;;2.42;;
22687;SDS011;11511;51.514;7.080;2023-07-13T10:46:46;10.18;;;2.17;;
22687;SDS011;11511;51.514;7.080;2023-07-13T10:49:11;8.90;;;2.22;;
22687;SDS011;11511;51.514;7.080;2023-07-13T10:51:37;9.23;;;2.50;;
22687;SDS011;11511;51.514;7.080;2023-07-13T10:54:16;9.05;;;2.10;;
22687;SDS011;11511;51.514;7.080;2023-07-13T10:56:46;9.40;;;2.30;;
22687;SDS011;11511;51.514;7.080;2023-07-13T10:59:15;6.78;;;2.67;;
22687;SDS011;11511;51.514;7.080;2023-07-13T11:01:54;6.95;;;2.38;;
22687;SDS011;11511;51.514;7.080;2023-07-13T11:04:21;10.60;;;2.58;;
22687;SDS011;11511;51.514;7.080;2023-07-13T11:06:50;7.95;;;2.72;;
22687;SDS011;11511;51.514;7.080;2023-07-13T11:28:04;8.38;;;2.15;;
22687;SDS011;11511;51.514;7.080;2023-07-13T11:33:09;7.05;;;2.45;;
22687;SDS011;11511;51.514;7.080;2023-07-13T11:35:51;5.70;;;1.98;;
22687;SDS011;11511;51.514;7.080;2023-07-13T11:38:37;9.75;;;2.20;;
22687;SDS011;11511;51.514;7.080;2023-07-13T11:41:26;6.93;;;1.95;;
22687;SDS011;11511;51.514;7.080;2023-07-13T11:44:01;5.90;;;1.85;;
22687;SDS011;11511;51.514;7.080;2023-07-13T11:46:31;6.38;;;1.85;;
22687;SDS011;11511;51.514;7.080;2023-07-13T11:48:56;5.95;;;1.63;;
22687;SDS011;11511;51.514;7.080;2023-07-13T11:51:25;4.90;;;1.40;;
22687;SDS011;11511;51.514;7.080;2023-07-13T11:53:54;5.80;;;1.58;;
22687;SDS011;11511;51.514;7.080;2023-07-13T11:56:21;5.45;;;1.70;;
22687;SDS011;11511;51.514;7.080;2023-07-13T11:58:49;3.58;;;1.63;;
22687;SDS011;11511;51.514;7.080;2023-07-13T12:01:24;5.20;;;1.77;;
22687;SDS011;11511;51.514;7.080;2023-07-13T12:03:54;6.82;;;1.70;;
22687;SDS011;11511;51.514;7.080;2023-07-13T12:06:22;3.65;;;1.60;;
22687;SDS011;11511;51.514;7.080;2023-07-13T12:08:52;4.15;;;1.50;;
22687;SDS011;11511;51.514;7.080;2023-07-13T12:11:21;3.92;;;1.23;;
22687;SDS011;11511;51.514;7.080;2023-07-13T12:13:47;4.77;;;1.80;;
22687;SDS011;11511;51.514;7.080;2023-07-13T12:18:53;4.68;;;1.50;;
22687;SDS011;11511;51.514;7.080;2023-07-13T12:21:19;5.28;;;1.60;;
22687;SDS011;11511;51.514;7.080;2023-07-13T12:23:48;8.48;;;1.60;;
22687;SDS011;11511;51.514;7.080;2023-07-13T12:26:14;3.72;;;1.67;;
22687;SDS011;11511;51.514;7.080;2023-07-13T12:36:45;4.93;;;1.58;;
22687;SDS011;11511;51.514;7.080;2023-07-13T12:41:40;10.00;;;1.87;;
22687;SDS011;11511;51.514;7.080;2023-07-13T12:44:10;2.92;;;1.55;;
22687;SDS011;11511;51.514;7.080;2023-07-13T12:46:37;4.32;;;1.35;;
22687;SDS011;11511;51.514;7.080;2023-07-13T12:49:04;2.97;;;1.25;;
22687;SDS011;11511;51.514;7.080;2023-07-13T12:51:32;4.70;;;1.50;;
22687;SDS011;11511;51.514;7.080;2023-07-13T12:53:59;4.80;;;1.50;;
22687;SDS011;11511;51.514;7.080;2023-07-13T12:56:37;6.15;;;1.95;;
22687;SDS011;11511;51.514;7.080;2023-07-13T12:59:03;3.30;;;1.60;;
22687;SDS011;11511;51.514;7.080;2023-07-13T13:01:32;5.80;;;1.42;;
22687;SDS011;11511;51.514;7.080;2023-07-13T13:04:01;6.72;;;1.70;;
22687;SDS011;11511;51.514;7.080;2023-07-13T13:06:32;5.38;;;1.88;;
22687;SDS011;11511;51.514;7.080;2023-07-13T13:08:58;7.35;;;1.75;;
22687;SDS011;11511;51.514;7.080;2023-07-13T13:11:25;8.15;;;2.03;;
22687;SDS011;11511;51.514;7.080;2023-07-13T13:13:52;6.60;;;1.90;;
22687;SDS011;11511;51.514;7.080;2023-07-13T13:18:57;4.03;;;1.70;;
22687;SDS011;11511;51.514;7.080;2023-07-13T13:21:27;7.80;;;1.58;;
22687;SDS011;11511;51.514;7.080;2023-07-13T13:23:52;3.30;;;1.75;;
22687;SDS011;11511;51.514;7.080;2023-07-13T13:26:18;5.22;;;1.70;;
22687;SDS011;11511;51.514;7.080;2023-07-13T13:28:45;2.63;;;1.42;;
22687;SDS011;11511;51.514;7.080;2023-07-13T13:31:12;6.13;;;1.67;;
22687;SDS011;11511;51.514;7.080;2023-07-13T13:33:39;3.80;;;1.70;;
22687;SDS011;11511;51.514;7.080;2023-07-13T13:36:12;4.68;;;1.92;;
22687;SDS011;11511;51.514;7.080;2023-07-13T13:38:40;3.40;;;1.77;;
22687;SDS011;11511;51.514;7.080;2023-07-13T13:41:07;2.85;;;2.05;;
22687;SDS011;11511;51.514;7.080;2023-07-13T13:43:35;3.75;;;1.95;;
22687;SDS011;11511;51.514;7.080;2023-07-13T13:46:00;4.45;;;1.90;;
22687;SDS011;11511;51.514;7.080;2023-07-13T13:48:32;7.05;;;2.05;;
22687;SDS011;11511;51.514;7.080;2023-07-13T13:50:59;3.25;;;1.73;;
22687;SDS011;11511;51.514;7.080;2023-07-13T13:53:26;5.05;;;2.17;;
22687;SDS011;11511;51.514;7.080;2023-07-13T13:55:52;3.50;;;1.90;;
22687;SDS011;11511;51.514;7.080;2023-07-13T13:58:18;6.50;;;1.90;;
22687;SDS011;11511;51.514;7.080;2023-07-13T14:00:45;4.05;;;1.92;;
22687;SDS011;11511;51.514;7.080;2023-07-13T14:03:15;4.28;;;2.25;;
22687;SDS011;11511;51.514;7.080;2023-07-13T14:05:44;5.38;;;2.00;;
22687;SDS011;11511;51.514;7.080;2023-07-13T14:08:15;6.40;;;1.90;;
22687;SDS011;11511;51.514;7.080;2023-07-13T14:10:42;6.93;;;2.10;;
22687;SDS011;11511;51.514;7.080;2023-07-13T14:13:14;3.13;;;1.70;;
22687;SDS011;11511;51.514;7.080;2023-07-13T14:15:46;4.95;;;1.88;;
22687;SDS011;11511;51.514;7.080;2023-07-13T14:18:12;6.78;;;2.22;;
22687;SDS011;11511;51.514;7.080;2023-07-13T14:20:43;4.32;;;2.20;;
22687;SDS011;11511;51.514;7.080;2023-07-13T14:23:13;5.32;;;2.13;;
22687;SDS011;11511;51.514;7.080;2023-07-13T14:25:40;4.70;;;2.38;;
22687;SDS011;11511;51.514;7.080;2023-07-13T14:28:20;6.78;;;2.17;;
22687;SDS011;11511;51.514;7.080;2023-07-13T14:30:49;4.78;;;2.25;;
22687;SDS011;11511;51.514;7.080;2023-07-13T14:33:14;8.73;;;3.72;;
22687;SDS011;11511;51.514;7.080;2023-07-13T14:35:40;4.35;;;2.03;;
22687;SDS011;11511;51.514;7.080;2023-07-13T14:38:08;6.50;;;2.30;;
22687;SDS011;11511;51.514;7.080;2023-07-13T14:40:37;4.88;;;1.90;;
22687;SDS011;11511;51.514;7.080;2023-07-13T14:43:03;5.93;;;1.83;;
22687;SDS011;11511;51.514;7.080;2023-07-13T14:45:28;3.97;;;1.67;;
22687;SDS011;11511;51.514;7.080;2023-07-13T14:47:55;3.17;;;1.67;;
22687;SDS011;11511;51.514;7.080;2023-07-13T14:50:24;5.57;;;2.00;;
22687;SDS011;11511;51.514;7.080;2023-07-13T14:52:55;7.63;;;2.22;;
22687;SDS011;11511;51.514;7.080;2023-07-13T14:55:20;3.90;;;2.03;;
22687;SDS011;11511;51.514;7.080;2023-07-13T14:57:46;5.22;;;2.13;;
22687;SDS011;11511;51.514;7.080;2023-07-13T15:00:13;5.60;;;2.40;;
22687;SDS011;11511;51.514;7.080;2023-07-13T15:02:40;3.58;;;1.98;;
22687;SDS011;11511;51.514;7.080;2023-07-13T15:05:17;5.10;;;2.38;;
22687;SDS011;11511;51.514;7.080;2023-07-13T15:07:45;6.85;;;2.03;;
22687;SDS011;11511;51.514;7.080;2023-07-13T15:10:14;5.38;;;1.98;;
22687;SDS011;11511;51.514;7.080;2023-07-13T15:12:45;4.67;;;2.00;;
22687;SDS011;11511;51.514;7.080;2023-07-13T15:15:11;4.72;;;2.22;;
22687;SDS011;11511;51.514;7.080;2023-07-13T15:17:38;5.18;;;1.90;;
22687;SDS011;11511;51.514;7.080;2023-07-13T15:22:48;5.95;;;2.22;;
22687;SDS011;11511;51.514;7.080;2023-07-13T15:25:21;6.28;;;2.20;;
22687;SDS011;11511;51.514;7.080;2023-07-13T15:27:49;4.80;;;2.40;;
22687;SDS011;11511;51.514;7.080;2023-07-13T15:30:15;4.75;;;2.50;;
22687;SDS011;11511;51.514;7.080;2023-07-13T15:32:41;3.85;;;2.10;;
22687;SDS011;11511;51.514;7.080;2023-07-13T15:35:17;8.88;;;2.38;;
22687;SDS011;11511;51.514;7.080;2023-07-13T15:37:44;4.00;;;2.60;;
22687;SDS011;11511;51.514;7.080;2023-07-13T15:40:10;4.40;;;2.42;;
22687;SDS011;11511;51.514;7.080;2023-07-13T15:42:37;5.93;;;2.67;;
22687;SDS011;11511;51.514;7.080;2023-07-13T15:45:09;6.78;;;2.90;;
22687;SDS011;11511;51.514;7.080;2023-07-13T15:47:40;5.47;;;2.72;;
22687;SDS011;11511;51.514;7.080;2023-07-13T15:50:11;15.80;;;3.00;;
22687;SDS011;11511;51.514;7.080;2023-07-13T15:52:37;9.55;;;3.42;;
22687;SDS011;11511;51.514;7.080;2023-07-13T15:55:03;10.55;;;3.17;;
22687;SDS011;11511;51.514;7.080;2023-07-13T15:57:28;4.75;;;2.80;;
22687;SDS011;11511;51.514;7.080;2023-07-13T15:59:53;4.35;;;3.13;;
22687;SDS011;11511;51.514;7.080;2023-07-13T16:02:20;5.93;;;2.83;;
22687;SDS011;11511;51.514;7.080;2023-07-13T16:04:48;6.13;;;2.88;;
22687;SDS011;11511;51.514;7.080;2023-07-13T16:07:14;6.72;;;2.95;;
22687;SDS011;11511;51.514;7.080;2023-07-13T16:09:46;6.07;;;3.17;;
22687;SDS011;11511;51.514;7.080;2023-07-13T16:12:12;6.47;;;3.00;;
22687;SDS011;11511;51.514;7.080;2023-07-13T16:14:39;7.63;;;3.13;;
22687;SDS011;11511;51.514;7.080;2023-07-13T16:17:08;6.22;;;3.20;;
22687;SDS011;11511;51.514;7.080;2023-07-13T16:19:35;5.10;;;3.17;;
22687;SDS011;11511;51.514;7.080;2023-07-13T16:22:01;6.43;;;3.30;;
22687;SDS011;11511;51.514;7.080;2023-07-13T16:24:30;6.78;;;3.28;;
22687;SDS011;11511;51.514;7.080;2023-07-13T16:26:56;6.03;;;3.38;;
22687;SDS011;11511;51.514;7.080;2023-07-13T16:29:27;7.15;;;3.30;;
22687;SDS011;11511;51.514;7.080;2023-07-13T16:34:27;6.00;;;3.38;;
22687;SDS011;11511;51.514;7.080;2023-07-13T16:36:54;5.50;;;3.20;;
22687;SDS011;11511;51.514;7.080;2023-07-13T16:39:19;6.68;;;3.50;;
22687;SDS011;11511;51.514;7.080;2023-07-13T16:41:47;5.35;;;3.55;;
22687;SDS011;11511;51.514;7.080;2023-07-13T16:44:14;7.20;;;3.70;;
22687;SDS011;11511;51.514;7.080;2023-07-13T16:46:43;6.93;;;3.20;;
22687;SDS011;11511;51.514;7.080;2023-07-13T16:49:27;4.68;;;3.03;;
22687;SDS011;11511;51.514;7.080;2023-07-13T16:51:55;7.45;;;3.17;;
22687;SDS011;11511;51.514;7.080;2023-07-13T16:54:30;7.20;;;3.88;;
22687;SDS011;11511;51.514;7.080;2023-07-13T16:56:58;6.30;;;3.67;;
22687;SDS011;11511;51.514;7.080;2023-07-13T16:59:33;5.85;;;3.75;;
22687;SDS011;11511;51.514;7.080;2023-07-13T17:02:00;5.50;;;3.60;;
22687;SDS011;11511;51.514;7.080;2023-07-13T17:04:28;5.15;;;3.33;;
22687;SDS011;11511;51.514;7.080;2023-07-13T17:06:55;3.90;;;3.38;;
22687;SDS011;11511;51.514;7.080;2023-07-13T17:09:22;8.55;;;3.50;;
22687;SDS011;11511;51.514;7.080;2023-07-13T17:11:51;6.90;;;3.30;;
22687;SDS011;11511;51.514;7.080;2023-07-13T17:14:20;6.10;;;3.83;;
22687;SDS011;11511;51.514;7.080;2023-07-13T17:16:52;5.57;;;3.47;;
22687;SDS011;11511;51.514;7.080;2023-07-13T17:19:20;7.82;;;3.63;;
22687;SDS011;11511;51.514;7.080;2023-07-13T17:21:55;6.45;;;3.45;;
22687;SDS011;11511;51.514;7.080;2023-07-13T17:24:24;5.68;;;3.30;;
22687;SDS011;11511;51.514;7.080;2023-07-13T17:26:51;7.75;;;3.40;;
22687;SDS011;11511;51.514;7.080;2023-07-13T17:29:19;6.05;;;3.42;;
22687;SDS011;11511;51.514;7.080;2023-07-13T17:31:45;5.38;;;3.38;;
22687;SDS011;11511;51.514;7.080;2023-07-13T17:34:11;6.55;;;3.47;;
22687;SDS011;11511;51.514;7.080;2023-07-13T17:36:38;9.00;;;3.90;;
22687;SDS011;11511;51.514;7.080;2023-07-13T17:39:11;6.60;;;3.50;;
22687;SDS011;11511;51.514;7.080;2023-07-13T17:41:48;5.03;;;3.38;;
22687;SDS011;11511;51.514;7.080;2023-07-13T17:44:15;10.13;;;3.60;;
22687;SDS011;11511;51.514;7.080;2023-07-13T17:46:45;6.28;;;3.58;;
22687;SDS011;11511;51.514;7.080;2023-07-13T17:49:21;6.97;;;3.47;;
22687;SDS011;11511;51.514;7.080;2023-07-13T17:51:56;4.32;;;3.20;;
22687;SDS011;11511;51.514;7.080;2023-07-13T17:54:22;8.05;;;3.28;;
22687;SDS011;11511;51.514;7.080;2023-07-13T17:56:50;5.55;;;3.45;;
22687;SDS011;11511;51.514;7.080;2023-07-13T17:59:16;7.05;;;3.38;;
22687;SDS011;11511;51.514;7.080;2023-07-13T18:01:42;4.38;;;3.40;;
22687;SDS011;11511;51.514;7.080;2023-07-13T18:04:08;4.93;;;3.20;;
22687;SDS011;11511;51.514;7.080;2023-07-13T18:06:39;4.75;;;3.05;;
22687;SDS011;11511;51.514;7.080;2023-07-13T18:09:14;4.47;;;2.90;;
22687;SDS011;11511;51.514;7.080;2023-07-13T18:11:42;3.35;;;2.70;;
22687;SDS011;11511;51.514;7.080;2023-07-13T18:14:08;3.63;;;2.80;;
22687;SDS011;11511;51.514;7.080;2023-07-13T18:16:34;3.22;;;2.63;;
22687;SDS011;11511;51.514;7.080;2023-07-13T18:19:00;5.55;;;3.10;;
22687;SDS011;11511;51.514;7.080;2023-07-13T18:21:27;4.97;;;3.08;;
22687;SDS011;11511;51.514;7.080;2023-07-13T18:23:54;5.68;;;3.15;;
22687;SDS011;11511;51.514;7.080;2023-07-13T18:26:20;4.65;;;2.70;;
22687;SDS011;11511;51.514;7.080;2023-07-13T18:28:46;4.72;;;3.00;;
22687;SDS011;11511;51.514;7.080;2023-07-13T18:31:22;4.30;;;3.30;;
22687;SDS011;11511;51.514;7.080;2023-07-13T18:33:50;5.72;;;3.05;;
22687;SDS011;11511;51.514;7.080;2023-07-13T18:36:19;4.93;;;3.15;;
22687;SDS011;11511;51.514;7.080;2023-07-13T18:38:45;5.38;;;3.25;;
22687;SDS011;11511;51.514;7.080;2023-07-13T18:41:12;6.90;;;3.47;;
22687;SDS011;11511;51.514;7.080;2023-07-13T18:43:40;3.95;;;3.17;;
22687;SDS011;11511;51.514;7.080;2023-07-13T18:46:20;6.65;;;3.78;;
22687;SDS011;11511;51.514;7.080;2023-07-13T18:48:48;6.28;;;3.47;;
22687;SDS011;11511;51.514;7.080;2023-07-13T18:51:15;5.13;;;3.47;;
22687;SDS011;11511;51.514;7.080;2023-07-13T18:53:41;5.43;;;3.70;;
22687;SDS011;11511;51.514;7.080;2023-07-13T18:56:07;5.18;;;3.42;;
22687;SDS011;11511;51.514;7.080;2023-07-13T18:58:36;4.90;;;3.40;;
22687;SDS011;11511;51.514;7.080;2023-07-13T19:01:01;5.95;;;3.65;;
22687;SDS011;11511;51.514;7.080;2023-07-13T19:03:30;5.00;;;3.60;;
22687;SDS011;11511;51.514;7.080;2023-07-13T19:05:58;7.30;;;3.80;;
22687;SDS011;11511;51.514;7.080;2023-07-13T19:08:25;5.35;;;3.70;;
22687;SDS011;11511;51.514;7.080;2023-07-13T19:10:51;13.13;;;5.00;;
22687;SDS011;11511;51.514;7.080;2023-07-13T19:13:27;5.75;;;4.22;;
22687;SDS011;11511;51.514;7.080;2023-07-13T19:15:55;6.22;;;3.70;;
22687;SDS011;11511;51.514;7.080;2023-07-13T19:18:22;6.45;;;4.20;;
22687;SDS011;11511;51.514;7.080;2023-07-13T19:20:49;8.25;;;4.35;;
22687;SDS011;11511;51.514;7.080;2023-07-13T19:23:21;5.68;;;3.78;;
22687;SDS011;11511;51.514;7.080;2023-07-13T19:25:54;6.72;;;3.97;;
22687;SDS011;11511;51.514;7.080;2023-07-13T19:28:34;5.90;;;3.78;;
22687;SDS011;11511;51.514;7.080;2023-07-13T19:31:03;8.02;;;4.40;;
22687;SDS011;11511;51.514;7.080;2023-07-13T19:33:29;6.72;;;4.43;;
22687;SDS011;11511;51.514;7.080;2023-07-13T19:35:55;6.40;;;4.20;;
22687;SDS011;11511;51.514;7.080;2023-07-13T19:38:22;7.72;;;4.82;;
22687;SDS011;11511;51.514;7.080;2023-07-13T19:40:50;5.90;;;4.18;;
22687;SDS011;11511;51.514;7.080;2023-07-13T19:43:17;11.68;;;4.72;;
22687;SDS011;11511;51.514;7.080;2023-07-13T19:45:42;9.20;;;4.53;;
22687;SDS011;11511;51.514;7.080;2023-07-13T19:48:08;7.32;;;4.43;;
22687;SDS011;11511;51.514;7.080;2023-07-13T19:50:33;6.72;;;4.53;;
22687;SDS011;11511;51.514;7.080;2023-07-13T19:53:01;6.47;;;4.65;;
22687;SDS011;11511;51.514;7.080;2023-07-13T19:55:26;10.05;;;5.05;;
22687;SDS011;11511;51.514;7.080;2023-07-13T19:57:53;7.03;;;5.15;;
22687;SDS011;11511;51.514;7.080;2023-07-13T20:00:23;7.20;;;5.25;;
22687;SDS011;11511;51.514;7.080;2023-07-13T20:02:50;7.00;;;5.30;;
22687;SDS011;11511;51.514;7.080;2023-07-13T20:05:18;8.82;;;5.63;;
22687;SDS011;11511;51.514;7.080;2023-07-13T20:07:44;6.40;;;5.68;;
22687;SDS011;11511;51.514;7.080;2023-07-13T20:10:16;7.18;;;5.40;;
22687;SDS011;11511;51.514;7.080;2023-07-13T20:12:51;6.68;;;5.20;;
22687;SDS011;11511;51.514;7.080;2023-07-13T20:15:19;7.45;;;5.30;;
22687;SDS011;11511;51.514;7.080;2023-07-13T20:17:47;7.78;;;5.47;;
22687;SDS011;11511;51.514;7.080;2023-07-13T20:22:42;6.93;;;6.15;;
22687;SDS011;11511;51.514;7.080;2023-07-13T20:25:19;9.05;;;6.10;;
22687;SDS011;11511;51.514;7.080;2023-07-13T20:27:51;8.05;;;6.15;;
22687;SDS011;11511;51.514;7.080;2023-07-13T20:30:17;6.47;;;5.78;;
22687;SDS011;11511;51.514;7.080;2023-07-13T20:32:42;8.05;;;5.95;;
22687;SDS011;11511;51.514;7.080;2023-07-13T20:35:42;12.27;;;6.22;;
22687;SDS011;11511;51.514;7.080;2023-07-13T20:38:01;8.00;;;5.78;;
22687;SDS011;11511;51.514;7.080;2023-07-13T20:40:31;7.75;;;6.03;;
22687;SDS011;11511;51.514;7.080;2023-07-13T20:42:58;8.68;;;6.18;;
22687;SDS011;11511;51.514;7.080;2023-07-13T20:45:25;9.05;;;6.60;;
22687;SDS011;11511;51.514;7.080;2023-07-13T20:47:52;11.10;;;6.18;;
22687;SDS011;11511;51.514;7.080;2023-07-13T20:52:51;7.65;;;5.50;;
22687;SDS011;11511;51.514;7.080;2023-07-13T20:55:19;10.15;;;5.78;;
22687;SDS011;11511;51.514;7.080;2023-07-13T20:57:46;8.70;;;5.70;;
22687;SDS011;11511;51.514;7.080;2023-07-13T21:00:14;10.63;;;5.82;;
22687;SDS011;11511;51.514;7.080;2023-07-13T21:02:41;8.75;;;6.03;;
22687;SDS011;11511;51.514;7.080;2023-07-13T21:05:17;6.38;;;5.43;;
22687;SDS011;11511;51.514;7.080;2023-07-13T21:07:44;7.45;;;5.68;;
22687;SDS011;11511;51.514;7.080;2023-07-13T21:10:12;6.88;;;5.38;;
22687;SDS011;11511;51.514;7.080;2023-07-13T21:12:51;8.38;;;5.95;;
22687;SDS011;11511;51.514;7.080;2023-07-13T21:15:19;7.32;;;5.95;;
22687;SDS011;11511;51.514;7.080;2023-07-13T21:17:47;10.00;;;5.82;;
22687;SDS011;11511;51.514;7.080;2023-07-13T21:20:24;6.80;;;5.70;;
22687;SDS011;11511;51.514;7.080;2023-07-13T21:22:52;7.90;;;5.80;;
22687;SDS011;11511;51.514;7.080;2023-07-13T21:25:19;8.50;;;6.28;;
22687;SDS011;11511;51.514;7.080;2023-07-13T21:27:50;11.68;;;6.10;;
22687;SDS011;11511;51.514;7.080;2023-07-13T21:30:18;7.68;;;5.93;;
22687;SDS011;11511;51.514;7.080;2023-07-13T21:32:48;11.60;;;5.95;;
22687;SDS011;11511;51.514;7.080;2023-07-13T21:35:16;6.55;;;5.78;;
22687;SDS011;11511;51.514;7.080;2023-07-13T21:37:46;9.07;;;5.95;;
22687;SDS011;11511;51.514;7.080;2023-07-13T21:40:12;8.23;;;5.70;;
22687;SDS011;11511;51.514;7.080;2023-07-13T21:42:41;9.98;;;5.85;;
22687;SDS011;11511;51.514;7.080;2023-07-13T21:45:17;7.93;;;5.93;;
22687;SDS011;11511;51.514;7.080;2023-07-13T21:47:45;8.52;;;5.65;;
22687;SDS011;11511;51.514;7.080;2023-07-13T21:50:11;8.98;;;5.70;;
22687;SDS011;11511;51.514;7.080;2023-07-13T21:52:36;6.88;;;5.53;;
22687;SDS011;11511;51.514;7.080;2023-07-13T21:55:01;9.48;;;6.00;;
22687;SDS011;11511;51.514;7.080;2023-07-13T21:57:28;8.38;;;5.82;;
22687;SDS011;11511;51.514;7.080;2023-07-13T21:59:54;8.77;;;6.32;;
22687;SDS011;11511;51.514;7.080;2023-07-13T22:02:20;7.88;;;5.68;;
22687;SDS011;11511;51.514;7.080;2023-07-13T22:04:45;11.50;;;6.28;;
22687;SDS011;11511;51.514;7.080;2023-07-13T22:07:10;9.63;;;6.00;;
22687;SDS011;11511;51.514;7.080;2023-07-13T22:09:36;7.93;;;6.15;;
22687;SDS011;11511;51.514;7.080;2023-07-13T22:12:01;7.30;;;6.38;;
22687;SDS011;11511;51.514;7.080;2023-07-13T22:14:27;6.90;;;6.00;;
22687;SDS011;11511;51.514;7.080;2023-07-13T22:16:53;9.38;;;6.10;;
22687;SDS011;11511;51.514;7.080;2023-07-13T22:19:20;11.07;;;6.45;;
22687;SDS011;11511;51.514;7.080;2023-07-13T22:21:49;7.38;;;6.53;;
22687;SDS011;11511;51.514;7.080;2023-07-13T22:24:16;10.52;;;6.55;;
22687;SDS011;11511;51.514;7.080;2023-07-13T22:26:43;8.57;;;5.95;;
22687;SDS011;11511;51.514;7.080;2023-07-13T22:29:13;9.57;;;6.22;;
22687;SDS011;11511;51.514;7.080;2023-07-13T22:31:40;9.50;;;6.10;;
22687;SDS011;11511;51.514;7.080;2023-07-13T22:34:09;9.77;;;6.35;;
22687;SDS011;11511;51.514;7.080;2023-07-13T22:36:37;9.93;;;6.45;;
22687;SDS011;11511;51.514;7.080;2023-07-13T22:39:03;12.43;;;6.47;;
22687;SDS011;11511;51.514;7.080;2023-07-13T22:41:29;7.55;;;6.10;;
22687;SDS011;11511;51.514;7.080;2023-07-13T22:43:55;8.25;;;5.55;;
22687;SDS011;11511;51.514;7.080;2023-07-13T22:46:24;13.35;;;6.57;;
22687;SDS011;11511;51.514;7.080;2023-07-13T22:48:56;7.38;;;6.25;;
22687;SDS011;11511;51.514;7.080;2023-07-13T22:51:24;9.60;;;6.30;;
22687;SDS011;11511;51.514;7.080;2023-07-13T22:53:50;8.70;;;6.35;;
22687;SDS011;11511;51.514;7.080;2023-07-13T22:56:17;11.07;;;6.82;;
22687;SDS011;11511;51.514;7.080;2023-07-13T22:58:42;7.68;;;6.43;;
22687;SDS011;11511;51.514;7.080;2023-07-13T23:01:18;10.63;;;6.05;;
22687;SDS011;11511;51.514;7.080;2023-07-13T23:03:49;10.38;;;6.30;;
22687;SDS011;11511;51.514;7.080;2023-07-13T23:06:20;7.10;;;6.40;;
22687;SDS011;11511;51.514;7.080;2023-07-13T23:08:48;9.70;;;6.60;;
22687;SDS011;11511;51.514;7.080;2023-07-13T23:11:16;13.13;;;6.68;;
22687;SDS011;11511;51.514;7.080;2023-07-13T23:13:43;9.95;;;6.38;;
22687;SDS011;11511;51.514;7.080;2023-07-13T23:16:09;10.95;;;6.60;;
22687;SDS011;11511;51.514;7.080;2023-07-13T23:18:37;11.18;;;6.40;;
22687;SDS011;11511;51.514;7.080;2023-07-13T23:21:02;14.05;;;6.20;;
22687;SDS011;11511;51.514;7.080;2023-07-13T23:23:28;8.20;;;5.90;;
22687;SDS011;11511;51.514;7.080;2023-07-13T23:25:53;10.13;;;6.68;;
22687;SDS011;11511;51.514;7.080;2023-07-13T23:28:18;9.20;;;5.70;;
22687;SDS011;11511;51.514;7.080;2023-07-13T23:30:45;12.40;;;6.55;;
22687;SDS011;11511;51.514;7.080;2023-07-13T23:35:46;6.35;;;5.72;;
22687;SDS011;11511;51.514;7.080;2023-07-13T23:38:13;9.55;;;6.00;;
22687;SDS011;11511;51.514;7.080;2023-07-13T23:40:38;10.88;;;6.30;;
22687;SDS011;11511;51.514;7.080;2023-07-13T23:43:04;12.23;;;5.90;;
22687;SDS011;11511;51.514;7.080;2023-07-13T23:45:29;8.82;;;5.95;;
22687;SDS011;11511;51.514;7.080;2023-07-13T23:47:56;9.68;;;6.10;;
22687;SDS011;11511;51.514;7.080;2023-07-13T23:50:26;9.43;;;5.65;;
22687;SDS011;11511;51.514;7.080;2023-07-13T23:52:54;17.10;;;5.63;;
22687;SDS011;11511;51.514;7.080;2023-07-13T23:55:30;8.55;;;6.10;;
22687;SDS011;11511;51.514;7.080;2023-07-13T23:58:00;11.75;;;6.20;;
